sensor_id;sensor_type;location;lat;lon;timestamp;P1;durP1;ratioP1;P2;durP2;ratioP2
58250;SDS011;51449;51.676;5.812;2022-08-19T00:01:31;29.23;;;26.30;;
58250;SDS011;51449;51.676;5.812;2022-08-19T00:03:59;28.80;;;26.10;;
58250;SDS011;51449;51.676;5.812;2022-08-19T00:06:25;28.07;;;25.47;;
58250;SDS011;51449;51.676;5.812;2022-08-19T00:08:51;29.33;;;26.43;;
58250;SDS011;51449;51.676;5.812;2022-08-19T00:11:13;29.27;;;26.40;;
58250;SDS011;51449;51.676;5.812;2022-08-19T00:13:46;28.40;;;25.80;;
58250;SDS011;51449;51.676;5.812;2022-08-19T00:16:09;26.93;;;24.33;;
58250;SDS011;51449;51.676;5.812;2022-08-19T00:18:32;29.87;;;26.87;;
58250;SDS011;51449;51.676;5.812;2022-08-19T00:20:55;29.17;;;26.37;;
58250;SDS011;51449;51.676;5.812;2022-08-19T00:23:17;28.67;;;25.87;;
58250;SDS011;51449;51.676;5.812;2022-08-19T00:25:38;30.23;;;27.23;;
58250;SDS011;51449;51.676;5.812;2022-08-19T00:28:02;29.70;;;26.80;;
58250;SDS011;51449;51.676;5.812;2022-08-19T00:30:25;29.27;;;26.53;;
58250;SDS011;51449;51.676;5.812;2022-08-19T00:32:49;29.23;;;26.43;;
58250;SDS011;51449;51.676;5.812;2022-08-19T00:35:11;29.97;;;27.07;;
58250;SDS011;51449;51.676;5.812;2022-08-19T00:37:34;30.30;;;27.43;;
58250;SDS011;51449;51.676;5.812;2022-08-19T00:39:56;30.33;;;27.20;;
58250;SDS011;51449;51.676;5.812;2022-08-19T00:42:19;31.47;;;28.43;;
58250;SDS011;51449;51.676;5.812;2022-08-19T00:47:05;29.93;;;26.87;;
58250;SDS011;51449;51.676;5.812;2022-08-19T00:49:40;29.80;;;26.67;;
58250;SDS011;51449;51.676;5.812;2022-08-19T00:52:16;30.40;;;27.40;;
58250;SDS011;51449;51.676;5.812;2022-08-19T00:54:45;31.90;;;28.70;;
58250;SDS011;51449;51.676;5.812;2022-08-19T00:57:15;31.23;;;28.00;;
58250;SDS011;51449;51.676;5.812;2022-08-19T00:59:43;33.23;;;30.03;;
58250;SDS011;51449;51.676;5.812;2022-08-19T01:02:22;32.77;;;29.47;;
58250;SDS011;51449;51.676;5.812;2022-08-19T01:04:45;31.27;;;28.07;;
58250;SDS011;51449;51.676;5.812;2022-08-19T01:07:07;33.30;;;29.90;;
58250;SDS011;51449;51.676;5.812;2022-08-19T01:09:35;32.00;;;28.77;;
58250;SDS011;51449;51.676;5.812;2022-08-19T01:11:57;34.47;;;31.03;;
58250;SDS011;51449;51.676;5.812;2022-08-19T01:14:19;33.57;;;30.17;;
58250;SDS011;51449;51.676;5.812;2022-08-19T01:16:41;34.13;;;30.73;;
58250;SDS011;51449;51.676;5.812;2022-08-19T01:19:14;34.88;;;31.30;;
58250;SDS011;51449;51.676;5.812;2022-08-19T01:22:10;33.23;;;30.10;;
58250;SDS011;51449;51.676;5.812;2022-08-19T01:24:51;32.10;;;28.87;;
58250;SDS011;51449;51.676;5.812;2022-08-19T01:27:16;34.70;;;31.10;;
58250;SDS011;51449;51.676;5.812;2022-08-19T01:29:41;32.47;;;29.33;;
58250;SDS011;51449;51.676;5.812;2022-08-19T01:32:07;30.60;;;27.60;;
58250;SDS011;51449;51.676;5.812;2022-08-19T01:34:53;32.47;;;29.20;;
58250;SDS011;51449;51.676;5.812;2022-08-19T01:37:15;32.73;;;29.33;;
58250;SDS011;51449;51.676;5.812;2022-08-19T01:39:47;34.63;;;31.23;;
58250;SDS011;51449;51.676;5.812;2022-08-19T01:42:09;32.67;;;29.30;;
58250;SDS011;51449;51.676;5.812;2022-08-19T01:44:34;33.35;;;29.80;;
58250;SDS011;51449;51.676;5.812;2022-08-19T01:46:57;34.60;;;31.02;;
58250;SDS011;51449;51.676;5.812;2022-08-19T01:49:20;32.27;;;28.97;;
58250;SDS011;51449;51.676;5.812;2022-08-19T01:51:47;31.77;;;28.40;;
58250;SDS011;51449;51.676;5.812;2022-08-19T01:54:12;32.83;;;29.30;;
58250;SDS011;51449;51.676;5.812;2022-08-19T01:56:48;32.30;;;29.10;;
58250;SDS011;51449;51.676;5.812;2022-08-19T01:59:16;34.20;;;30.60;;
58250;SDS011;51449;51.676;5.812;2022-08-19T02:01:44;32.93;;;29.47;;
58250;SDS011;51449;51.676;5.812;2022-08-19T02:04:06;31.83;;;28.57;;
58250;SDS011;51449;51.676;5.812;2022-08-19T02:06:29;35.23;;;31.63;;
58250;SDS011;51449;51.676;5.812;2022-08-19T02:08:51;33.07;;;29.67;;
58250;SDS011;51449;51.676;5.812;2022-08-19T02:11:22;32.27;;;28.97;;
58250;SDS011;51449;51.676;5.812;2022-08-19T02:13:49;32.53;;;29.13;;
58250;SDS011;51449;51.676;5.812;2022-08-19T02:16:11;33.43;;;30.03;;
58250;SDS011;51449;51.676;5.812;2022-08-19T02:18:33;32.97;;;29.57;;
58250;SDS011;51449;51.676;5.812;2022-08-19T02:20:55;33.93;;;30.43;;
58250;SDS011;51449;51.676;5.812;2022-08-19T02:23:17;34.07;;;30.57;;
58250;SDS011;51449;51.676;5.812;2022-08-19T02:25:39;34.77;;;31.17;;
58250;SDS011;51449;51.676;5.812;2022-08-19T02:28:03;33.03;;;29.58;;
58250;SDS011;51449;51.676;5.812;2022-08-19T02:30:26;33.00;;;29.50;;
58250;SDS011;51449;51.676;5.812;2022-08-19T02:32:48;33.37;;;29.77;;
58250;SDS011;51449;51.676;5.812;2022-08-19T02:35:10;32.67;;;29.20;;
58250;SDS011;51449;51.676;5.812;2022-08-19T02:40:15;32.13;;;28.67;;
58250;SDS011;51449;51.676;5.812;2022-08-19T02:42:39;32.10;;;28.60;;
58250;SDS011;51449;51.676;5.812;2022-08-19T02:45:02;32.00;;;28.70;;
58250;SDS011;51449;51.676;5.812;2022-08-19T02:47:26;31.42;;;27.52;;
58250;SDS011;51449;51.676;5.812;2022-08-19T02:49:48;35.07;;;29.33;;
58250;SDS011;51449;51.676;5.812;2022-08-19T02:52:11;31.20;;;27.80;;
58250;SDS011;51449;51.676;5.812;2022-08-19T02:54:33;32.17;;;28.83;;
58250;SDS011;51449;51.676;5.812;2022-08-19T02:56:55;31.97;;;28.60;;
58250;SDS011;51449;51.676;5.812;2022-08-19T02:59:17;30.17;;;26.97;;
58250;SDS011;51449;51.676;5.812;2022-08-19T03:01:43;32.17;;;28.87;;
58250;SDS011;51449;51.676;5.812;2022-08-19T03:04:07;33.13;;;29.73;;
58250;SDS011;51449;51.676;5.812;2022-08-19T03:06:37;33.13;;;29.73;;
58250;SDS011;51449;51.676;5.812;2022-08-19T03:09:02;34.23;;;30.63;;
58250;SDS011;51449;51.676;5.812;2022-08-19T03:11:27;30.73;;;27.43;;
58250;SDS011;51449;51.676;5.812;2022-08-19T03:13:52;31.77;;;28.43;;
58250;SDS011;51449;51.676;5.812;2022-08-19T03:16:16;31.23;;;27.93;;
58250;SDS011;51449;51.676;5.812;2022-08-19T03:18:39;32.78;;;29.33;;
58250;SDS011;51449;51.676;5.812;2022-08-19T03:21:01;34.30;;;30.80;;
58250;SDS011;51449;51.676;5.812;2022-08-19T03:23:24;37.87;;;32.17;;
58250;SDS011;51449;51.676;5.812;2022-08-19T03:25:47;35.67;;;31.73;;
58250;SDS011;51449;51.676;5.812;2022-08-19T03:28:31;42.38;;;34.28;;
58250;SDS011;51449;51.676;5.812;2022-08-19T03:31:04;41.17;;;35.63;;
58250;SDS011;51449;51.676;5.812;2022-08-19T03:33:51;43.77;;;36.60;;
58250;SDS011;51449;51.676;5.812;2022-08-19T03:36:14;43.40;;;36.70;;
58250;SDS011;51449;51.676;5.812;2022-08-19T03:38:45;41.67;;;35.63;;
58250;SDS011;51449;51.676;5.812;2022-08-19T03:41:21;48.40;;;38.73;;
58250;SDS011;51449;51.676;5.812;2022-08-19T03:44:04;51.15;;;40.22;;
58250;SDS011;51449;51.676;5.812;2022-08-19T03:46:33;43.03;;;36.33;;
58250;SDS011;51449;51.676;5.812;2022-08-19T03:48:56;45.80;;;37.43;;
58250;SDS011;51449;51.676;5.812;2022-08-19T03:51:25;42.37;;;36.93;;
58250;SDS011;51449;51.676;5.812;2022-08-19T03:53:56;44.37;;;37.00;;
58250;SDS011;51449;51.676;5.812;2022-08-19T03:56:22;42.53;;;36.23;;
58250;SDS011;51449;51.676;5.812;2022-08-19T03:58:47;46.33;;;37.20;;
58250;SDS011;51449;51.676;5.812;2022-08-19T04:01:11;46.00;;;38.07;;
58250;SDS011;51449;51.676;5.812;2022-08-19T04:03:39;44.93;;;36.67;;
58250;SDS011;51449;51.676;5.812;2022-08-19T04:06:16;43.43;;;35.03;;
58250;SDS011;51449;51.676;5.812;2022-08-19T04:08:43;41.53;;;35.30;;
58250;SDS011;51449;51.676;5.812;2022-08-19T04:13:30;39.27;;;33.33;;
58250;SDS011;51449;51.676;5.812;2022-08-19T04:15:52;40.47;;;34.20;;
58250;SDS011;51449;51.676;5.812;2022-08-19T04:18:14;38.47;;;33.63;;
58250;SDS011;51449;51.676;5.812;2022-08-19T04:20:54;42.23;;;35.07;;
58250;SDS011;51449;51.676;5.812;2022-08-19T04:23:17;36.63;;;32.23;;
58250;SDS011;51449;51.676;5.812;2022-08-19T04:25:41;33.67;;;29.93;;
58250;SDS011;51449;51.676;5.812;2022-08-19T04:28:05;37.73;;;31.57;;
58250;SDS011;51449;51.676;5.812;2022-08-19T04:30:28;43.47;;;35.90;;
58250;SDS011;51449;51.676;5.812;2022-08-19T04:32:50;44.00;;;36.67;;
58250;SDS011;51449;51.676;5.812;2022-08-19T04:35:12;45.77;;;36.17;;
58250;SDS011;51449;51.676;5.812;2022-08-19T04:37:38;50.70;;;38.07;;
58250;SDS011;51449;51.676;5.812;2022-08-19T04:39:59;59.47;;;41.70;;
58250;SDS011;51449;51.676;5.812;2022-08-19T04:42:40;55.23;;;39.07;;
58250;SDS011;51449;51.676;5.812;2022-08-19T04:45:02;60.57;;;41.07;;
58250;SDS011;51449;51.676;5.812;2022-08-19T04:47:29;63.77;;;43.20;;
58250;SDS011;51449;51.676;5.812;2022-08-19T04:50:14;71.43;;;45.70;;
58250;SDS011;51449;51.676;5.812;2022-08-19T04:52:39;67.13;;;45.03;;
58250;SDS011;51449;51.676;5.812;2022-08-19T04:55:04;62.07;;;41.07;;
58250;SDS011;51449;51.676;5.812;2022-08-19T04:57:27;62.25;;;39.90;;
58250;SDS011;51449;51.676;5.812;2022-08-19T04:59:53;66.83;;;43.57;;
58250;SDS011;51449;51.676;5.812;2022-08-19T05:02:17;65.43;;;41.87;;
58250;SDS011;51449;51.676;5.812;2022-08-19T05:04:39;69.77;;;44.30;;
58250;SDS011;51449;51.676;5.812;2022-08-19T05:07:01;63.50;;;42.77;;
58250;SDS011;51449;51.676;5.812;2022-08-19T05:09:23;63.67;;;42.73;;
58250;SDS011;51449;51.676;5.812;2022-08-19T05:11:45;69.07;;;44.97;;
58250;SDS011;51449;51.676;5.812;2022-08-19T05:14:07;56.03;;;40.07;;
58250;SDS011;51449;51.676;5.812;2022-08-19T05:16:31;63.25;;;42.63;;
58250;SDS011;51449;51.676;5.812;2022-08-19T05:18:53;58.53;;;40.57;;
58250;SDS011;51449;51.676;5.812;2022-08-19T05:21:35;68.63;;;44.47;;
58250;SDS011;51449;51.676;5.812;2022-08-19T05:24:17;58.17;;;42.23;;
58250;SDS011;51449;51.676;5.812;2022-08-19T05:26:42;59.53;;;40.70;;
58250;SDS011;51449;51.676;5.812;2022-08-19T05:29:08;59.17;;;42.60;;
58250;SDS011;51449;51.676;5.812;2022-08-19T05:31:31;65.00;;;44.33;;
58250;SDS011;51449;51.676;5.812;2022-08-19T05:33:54;53.33;;;40.20;;
58250;SDS011;51449;51.676;5.812;2022-08-19T05:36:17;59.45;;;42.53;;
58250;SDS011;51449;51.676;5.812;2022-08-19T05:38:41;60.03;;;41.13;;
58250;SDS011;51449;51.676;5.812;2022-08-19T05:41:07;55.33;;;39.97;;
58250;SDS011;51449;51.676;5.812;2022-08-19T05:43:34;57.87;;;41.57;;
58250;SDS011;51449;51.676;5.812;2022-08-19T05:45:57;65.00;;;43.93;;
58250;SDS011;51449;51.676;5.812;2022-08-19T05:48:19;60.83;;;45.40;;
58250;SDS011;51449;51.676;5.812;2022-08-19T05:50:41;61.60;;;43.10;;
58250;SDS011;51449;51.676;5.812;2022-08-19T05:53:04;64.57;;;46.17;;
58250;SDS011;51449;51.676;5.812;2022-08-19T05:55:26;64.73;;;43.90;;
58250;SDS011;51449;51.676;5.812;2022-08-19T05:57:48;71.63;;;46.37;;
58250;SDS011;51449;51.676;5.812;2022-08-19T06:00:10;67.23;;;47.07;;
58250;SDS011;51449;51.676;5.812;2022-08-19T06:02:33;66.10;;;47.23;;
58250;SDS011;51449;51.676;5.812;2022-08-19T06:04:56;73.07;;;45.73;;
58250;SDS011;51449;51.676;5.812;2022-08-19T06:07:18;66.90;;;46.83;;
58250;SDS011;51449;51.676;5.812;2022-08-19T06:09:41;71.37;;;51.13;;
58250;SDS011;51449;51.676;5.812;2022-08-19T06:12:19;77.63;;;51.03;;
58250;SDS011;51449;51.676;5.812;2022-08-19T06:14:42;75.43;;;51.80;;
58250;SDS011;51449;51.676;5.812;2022-08-19T06:17:04;79.80;;;56.37;;
58250;SDS011;51449;51.676;5.812;2022-08-19T06:19:28;79.47;;;53.87;;
58250;SDS011;51449;51.676;5.812;2022-08-19T06:21:52;84.57;;;52.15;;
58250;SDS011;51449;51.676;5.812;2022-08-19T06:24:16;78.60;;;54.80;;
58250;SDS011;51449;51.676;5.812;2022-08-19T06:26:44;86.77;;;56.93;;
58250;SDS011;51449;51.676;5.812;2022-08-19T06:29:09;81.40;;;52.57;;
58250;SDS011;51449;51.676;5.812;2022-08-19T06:31:45;77.90;;;52.40;;
58250;SDS011;51449;51.676;5.812;2022-08-19T06:34:13;79.10;;;53.53;;
58250;SDS011;51449;51.676;5.812;2022-08-19T06:36:36;73.63;;;50.80;;
58250;SDS011;51449;51.676;5.812;2022-08-19T06:39:04;73.17;;;48.80;;
58250;SDS011;51449;51.676;5.812;2022-08-19T06:41:48;78.88;;;51.40;;
58250;SDS011;51449;51.676;5.812;2022-08-19T06:44:20;76.80;;;53.83;;
58250;SDS011;51449;51.676;5.812;2022-08-19T06:46:46;71.50;;;50.33;;
58250;SDS011;51449;51.676;5.812;2022-08-19T06:49:16;73.43;;;54.30;;
58250;SDS011;51449;51.676;5.812;2022-08-19T06:51:40;76.15;;;52.45;;
58250;SDS011;51449;51.676;5.812;2022-08-19T06:54:05;78.47;;;50.60;;
58250;SDS011;51449;51.676;5.812;2022-08-19T06:56:40;78.35;;;52.00;;
58250;SDS011;51449;51.676;5.812;2022-08-19T06:59:03;75.70;;;52.72;;
58250;SDS011;51449;51.676;5.812;2022-08-19T07:01:36;69.35;;;48.55;;
58250;SDS011;51449;51.676;5.812;2022-08-19T07:04:09;69.13;;;47.60;;
58250;SDS011;51449;51.676;5.812;2022-08-19T07:06:32;68.30;;;48.70;;
58250;SDS011;51449;51.676;5.812;2022-08-19T07:09:05;70.70;;;48.88;;
58250;SDS011;51449;51.676;5.812;2022-08-19T07:11:29;65.60;;;45.70;;
58250;SDS011;51449;51.676;5.812;2022-08-19T07:13:54;74.13;;;52.85;;
58250;SDS011;51449;51.676;5.812;2022-08-19T07:16:17;70.80;;;48.60;;
58250;SDS011;51449;51.676;5.812;2022-08-19T07:18:50;68.85;;;47.88;;
58250;SDS011;51449;51.676;5.812;2022-08-19T07:21:14;63.10;;;45.70;;
58250;SDS011;51449;51.676;5.812;2022-08-19T07:23:50;60.35;;;44.83;;
58250;SDS011;51449;51.676;5.812;2022-08-19T07:26:18;61.78;;;45.38;;
58250;SDS011;51449;51.676;5.812;2022-08-19T07:28:48;60.15;;;43.33;;
58250;SDS011;51449;51.676;5.812;2022-08-19T07:31:13;61.60;;;43.33;;
58250;SDS011;51449;51.676;5.812;2022-08-19T07:33:44;70.65;;;50.25;;
58250;SDS011;51449;51.676;5.812;2022-08-19T07:36:09;72.28;;;47.67;;
58250;SDS011;51449;51.676;5.812;2022-08-19T07:38:33;57.90;;;41.00;;
58250;SDS011;51449;51.676;5.812;2022-08-19T07:40:56;59.15;;;42.00;;
58250;SDS011;51449;51.676;5.812;2022-08-19T07:43:18;56.00;;;42.00;;
58250;SDS011;51449;51.676;5.812;2022-08-19T07:45:44;58.65;;;40.90;;
58250;SDS011;51449;51.676;5.812;2022-08-19T07:48:06;54.28;;;39.45;;
58250;SDS011;51449;51.676;5.812;2022-08-19T07:50:28;53.75;;;40.50;;
58250;SDS011;51449;51.676;5.812;2022-08-19T07:52:51;55.00;;;40.80;;
58250;SDS011;51449;51.676;5.812;2022-08-19T07:55:13;53.92;;;40.40;;
58250;SDS011;51449;51.676;5.812;2022-08-19T07:57:55;53.10;;;41.33;;
58250;SDS011;51449;51.676;5.812;2022-08-19T08:00:17;50.47;;;36.17;;
58250;SDS011;51449;51.676;5.812;2022-08-19T08:02:45;50.60;;;38.10;;
58250;SDS011;51449;51.676;5.812;2022-08-19T08:05:08;55.63;;;42.42;;
58250;SDS011;51449;51.676;5.812;2022-08-19T08:07:49;51.30;;;39.25;;
58250;SDS011;51449;51.676;5.812;2022-08-19T08:10:29;49.30;;;40.13;;
58250;SDS011;51449;51.676;5.812;2022-08-19T08:12:52;49.55;;;36.58;;
58250;SDS011;51449;51.676;5.812;2022-08-19T08:15:31;49.20;;;39.03;;
58250;SDS011;51449;51.676;5.812;2022-08-19T08:17:53;52.63;;;39.55;;
58250;SDS011;51449;51.676;5.812;2022-08-19T08:20:15;51.72;;;39.70;;
58250;SDS011;51449;51.676;5.812;2022-08-19T08:22:42;45.38;;;34.35;;
58250;SDS011;51449;51.676;5.812;2022-08-19T08:25:24;49.10;;;36.53;;
58250;SDS011;51449;51.676;5.812;2022-08-19T08:27:47;47.47;;;34.88;;
58250;SDS011;51449;51.676;5.812;2022-08-19T08:30:18;49.78;;;36.15;;
58250;SDS011;51449;51.676;5.812;2022-08-19T08:32:45;43.75;;;33.08;;
58250;SDS011;51449;51.676;5.812;2022-08-19T08:35:12;43.40;;;33.25;;
58250;SDS011;51449;51.676;5.812;2022-08-19T08:37:44;44.28;;;32.78;;
58250;SDS011;51449;51.676;5.812;2022-08-19T08:46:05;39.40;;;30.38;;
58250;SDS011;51449;51.676;5.812;2022-08-19T08:52:05;39.95;;;29.58;;
58250;SDS011;51449;51.676;5.812;2022-08-19T08:54:39;38.55;;;30.95;;
58250;SDS011;51449;51.676;5.812;2022-08-19T08:57:17;44.10;;;33.65;;
58250;SDS011;51449;51.676;5.812;2022-08-19T08:59:57;42.70;;;33.10;;
58250;SDS011;51449;51.676;5.812;2022-08-19T09:02:36;37.35;;;28.05;;
58250;SDS011;51449;51.676;5.812;2022-08-19T09:05:04;38.97;;;32.25;;
58250;SDS011;51449;51.676;5.812;2022-08-19T09:16:12;39.13;;;31.50;;
58250;SDS011;51449;51.676;5.812;2022-08-19T09:18:50;37.78;;;28.88;;
58250;SDS011;51449;51.676;5.812;2022-08-19T09:21:28;36.85;;;30.05;;
58250;SDS011;51449;51.676;5.812;2022-08-19T09:23:54;36.72;;;29.30;;
58250;SDS011;51449;51.676;5.812;2022-08-19T09:26:19;43.75;;;35.67;;
58250;SDS011;51449;51.676;5.812;2022-08-19T09:28:55;41.45;;;35.28;;
58250;SDS011;51449;51.676;5.812;2022-08-19T09:31:20;38.22;;;31.98;;
58250;SDS011;51449;51.676;5.812;2022-08-19T09:33:47;39.38;;;31.42;;
58250;SDS011;51449;51.676;5.812;2022-08-19T09:36:13;40.15;;;34.17;;
58250;SDS011;51449;51.676;5.812;2022-08-19T09:38:55;42.15;;;34.30;;
58250;SDS011;51449;51.676;5.812;2022-08-19T09:41:20;43.78;;;33.95;;
58250;SDS011;51449;51.676;5.812;2022-08-19T09:43:45;40.35;;;33.42;;
58250;SDS011;51449;51.676;5.812;2022-08-19T09:46:13;43.47;;;34.40;;
58250;SDS011;51449;51.676;5.812;2022-08-19T09:48:39;38.92;;;32.88;;
58250;SDS011;51449;51.676;5.812;2022-08-19T09:51:07;41.67;;;35.80;;
58250;SDS011;51449;51.676;5.812;2022-08-19T09:53:42;41.55;;;35.10;;
58250;SDS011;51449;51.676;5.812;2022-08-19T09:56:06;44.25;;;36.10;;
58250;SDS011;51449;51.676;5.812;2022-08-19T09:58:29;45.90;;;37.83;;
58250;SDS011;51449;51.676;5.812;2022-08-19T10:00:56;46.35;;;38.10;;
58250;SDS011;51449;51.676;5.812;2022-08-19T10:03:21;38.63;;;33.00;;
58250;SDS011;51449;51.676;5.812;2022-08-19T10:05:46;38.15;;;32.25;;
58250;SDS011;51449;51.676;5.812;2022-08-19T10:08:22;34.97;;;30.23;;
58250;SDS011;51449;51.676;5.812;2022-08-19T10:10:52;35.47;;;28.75;;
58250;SDS011;51449;51.676;5.812;2022-08-19T10:13:17;34.85;;;31.05;;
58250;SDS011;51449;51.676;5.812;2022-08-19T10:15:46;33.13;;;29.15;;
58250;SDS011;51449;51.676;5.812;2022-08-19T10:18:10;36.28;;;30.08;;
58250;SDS011;51449;51.676;5.812;2022-08-19T10:20:33;32.67;;;28.42;;
58250;SDS011;51449;51.676;5.812;2022-08-19T10:22:58;32.60;;;29.05;;
58250;SDS011;51449;51.676;5.812;2022-08-19T10:25:22;39.72;;;33.05;;
58250;SDS011;51449;51.676;5.812;2022-08-19T10:27:43;42.95;;;32.75;;
58250;SDS011;51449;51.676;5.812;2022-08-19T10:30:12;39.67;;;32.55;;
58250;SDS011;51449;51.676;5.812;2022-08-19T10:32:34;38.45;;;33.10;;
58250;SDS011;51449;51.676;5.812;2022-08-19T10:34:57;39.10;;;33.92;;
58250;SDS011;51449;51.676;5.812;2022-08-19T10:37:18;40.33;;;31.63;;
58250;SDS011;51449;51.676;5.812;2022-08-19T10:39:51;42.72;;;32.88;;
58250;SDS011;51449;51.676;5.812;2022-08-19T10:42:14;37.78;;;30.35;;
58250;SDS011;51449;51.676;5.812;2022-08-19T10:44:37;37.72;;;30.90;;
58250;SDS011;51449;51.676;5.812;2022-08-19T10:46:59;38.05;;;30.40;;
58250;SDS011;51449;51.676;5.812;2022-08-19T10:49:21;36.42;;;31.98;;
58250;SDS011;51449;51.676;5.812;2022-08-19T10:51:45;35.50;;;29.10;;
58250;SDS011;51449;51.676;5.812;2022-08-19T10:57:13;35.55;;;27.60;;
58250;SDS011;51449;51.676;5.812;2022-08-19T10:59:37;29.95;;;23.45;;
58250;SDS011;51449;51.676;5.812;2022-08-19T11:02:00;32.97;;;26.23;;
58250;SDS011;51449;51.676;5.812;2022-08-19T11:04:26;28.80;;;24.30;;
58250;SDS011;51449;51.676;5.812;2022-08-19T11:06:50;28.52;;;24.92;;
58250;SDS011;51449;51.676;5.812;2022-08-19T11:09:12;30.95;;;26.17;;
58250;SDS011;51449;51.676;5.812;2022-08-19T11:11:36;30.70;;;25.63;;
58250;SDS011;51449;51.676;5.812;2022-08-19T11:14:02;32.15;;;26.27;;
58250;SDS011;51449;51.676;5.812;2022-08-19T11:16:25;31.88;;;24.38;;
58250;SDS011;51449;51.676;5.812;2022-08-19T11:18:50;31.90;;;26.58;;
58250;SDS011;51449;51.676;5.812;2022-08-19T11:21:24;31.48;;;25.10;;
58250;SDS011;51449;51.676;5.812;2022-08-19T11:23:54;32.97;;;26.10;;
58250;SDS011;51449;51.676;5.812;2022-08-19T11:26:20;37.45;;;30.08;;
58250;SDS011;51449;51.676;5.812;2022-08-19T11:28:44;33.35;;;28.55;;
58250;SDS011;51449;51.676;5.812;2022-08-19T11:31:14;35.15;;;30.05;;
58250;SDS011;51449;51.676;5.812;2022-08-19T11:33:40;37.13;;;29.60;;
58250;SDS011;51449;51.676;5.812;2022-08-19T11:36:08;41.15;;;32.88;;
58250;SDS011;51449;51.676;5.812;2022-08-19T11:38:35;37.67;;;31.05;;
58250;SDS011;51449;51.676;5.812;2022-08-19T11:41:02;43.00;;;32.50;;
58250;SDS011;51449;51.676;5.812;2022-08-19T11:43:28;36.47;;;30.23;;
58250;SDS011;51449;51.676;5.812;2022-08-19T11:45:57;38.85;;;30.92;;
58250;SDS011;51449;51.676;5.812;2022-08-19T11:48:20;36.30;;;29.05;;
58250;SDS011;51449;51.676;5.812;2022-08-19T11:50:43;33.15;;;28.38;;
58250;SDS011;51449;51.676;5.812;2022-08-19T11:53:05;30.88;;;25.83;;
58250;SDS011;51449;51.676;5.812;2022-08-19T11:55:30;27.35;;;24.30;;
58250;SDS011;51449;51.676;5.812;2022-08-19T11:57:53;29.15;;;25.10;;
58250;SDS011;51449;51.676;5.812;2022-08-19T12:00:16;30.08;;;25.08;;
58250;SDS011;51449;51.676;5.812;2022-08-19T12:02:38;28.95;;;25.20;;
58250;SDS011;51449;51.676;5.812;2022-08-19T12:05:01;28.35;;;25.23;;
58250;SDS011;51449;51.676;5.812;2022-08-19T12:07:26;28.83;;;23.13;;
58250;SDS011;51449;51.676;5.812;2022-08-19T12:09:48;26.58;;;23.75;;
58250;SDS011;51449;51.676;5.812;2022-08-19T12:12:11;29.10;;;24.63;;
58250;SDS011;51449;51.676;5.812;2022-08-19T12:14:33;32.58;;;26.52;;
58250;SDS011;51449;51.676;5.812;2022-08-19T12:16:55;34.08;;;29.90;;
58250;SDS011;51449;51.676;5.812;2022-08-19T12:19:18;30.55;;;26.48;;
58250;SDS011;51449;51.676;5.812;2022-08-19T12:21:43;33.03;;;26.90;;
58250;SDS011;51449;51.676;5.812;2022-08-19T12:24:05;28.67;;;25.58;;
58250;SDS011;51449;51.676;5.812;2022-08-19T12:26:28;30.58;;;25.15;;
58250;SDS011;51449;51.676;5.812;2022-08-19T12:28:52;27.90;;;24.23;;
58250;SDS011;51449;51.676;5.812;2022-08-19T12:31:16;32.03;;;28.17;;
58250;SDS011;51449;51.676;5.812;2022-08-19T12:33:39;31.40;;;26.43;;
58250;SDS011;51449;51.676;5.812;2022-08-19T12:36:04;29.50;;;25.85;;
58250;SDS011;51449;51.676;5.812;2022-08-19T12:38:29;28.90;;;25.02;;
58250;SDS011;51449;51.676;5.812;2022-08-19T12:40:51;28.73;;;25.73;;
58250;SDS011;51449;51.676;5.812;2022-08-19T12:43:18;31.35;;;26.70;;
58250;SDS011;51449;51.676;5.812;2022-08-19T12:45:41;26.77;;;24.15;;
58250;SDS011;51449;51.676;5.812;2022-08-19T12:48:07;30.48;;;24.80;;
58250;SDS011;51449;51.676;5.812;2022-08-19T12:50:51;27.67;;;23.50;;
58250;SDS011;51449;51.676;5.812;2022-08-19T12:53:13;26.77;;;24.02;;
58250;SDS011;51449;51.676;5.812;2022-08-19T12:55:36;29.13;;;24.30;;
58250;SDS011;51449;51.676;5.812;2022-08-19T12:57:58;28.63;;;25.25;;
58250;SDS011;51449;51.676;5.812;2022-08-19T13:00:22;29.42;;;24.98;;
58250;SDS011;51449;51.676;5.812;2022-08-19T13:02:45;26.92;;;24.15;;
58250;SDS011;51449;51.676;5.812;2022-08-19T13:05:13;28.52;;;25.55;;
58250;SDS011;51449;51.676;5.812;2022-08-19T13:07:41;32.15;;;27.27;;
58250;SDS011;51449;51.676;5.812;2022-08-19T13:10:09;29.65;;;26.45;;
58250;SDS011;51449;51.676;5.812;2022-08-19T13:12:33;30.98;;;26.55;;
58250;SDS011;51449;51.676;5.812;2022-08-19T13:14:56;27.63;;;24.45;;
58250;SDS011;51449;51.676;5.812;2022-08-19T13:17:19;25.73;;;21.55;;
58250;SDS011;51449;51.676;5.812;2022-08-19T13:19:42;24.40;;;21.73;;
58250;SDS011;51449;51.676;5.812;2022-08-19T13:22:04;26.08;;;21.45;;
58250;SDS011;51449;51.676;5.812;2022-08-19T13:24:35;28.40;;;24.33;;
58250;SDS011;51449;51.676;5.812;2022-08-19T13:26:58;27.65;;;24.20;;
58250;SDS011;51449;51.676;5.812;2022-08-19T13:29:22;29.10;;;25.73;;
58250;SDS011;51449;51.676;5.812;2022-08-19T13:32:03;29.50;;;23.52;;
58250;SDS011;51449;51.676;5.812;2022-08-19T13:34:43;29.45;;;26.25;;
58250;SDS011;51449;51.676;5.812;2022-08-19T13:37:07;30.25;;;23.60;;
58250;SDS011;51449;51.676;5.812;2022-08-19T13:39:30;27.23;;;22.75;;
58250;SDS011;51449;51.676;5.812;2022-08-19T13:41:54;23.33;;;20.83;;
58250;SDS011;51449;51.676;5.812;2022-08-19T13:44:17;20.27;;;18.17;;
58250;SDS011;51449;51.676;5.812;2022-08-19T13:46:41;22.67;;;20.30;;
58250;SDS011;51449;51.676;5.812;2022-08-19T13:49:06;29.88;;;22.35;;
58250;SDS011;51449;51.676;5.812;2022-08-19T13:51:29;27.27;;;24.48;;
58250;SDS011;51449;51.676;5.812;2022-08-19T13:53:51;29.25;;;25.05;;
58250;SDS011;51449;51.676;5.812;2022-08-19T13:56:14;31.17;;;24.30;;
58250;SDS011;51449;51.676;5.812;2022-08-19T13:58:46;28.77;;;22.58;;
58250;SDS011;51449;51.676;5.812;2022-08-19T14:01:08;28.83;;;25.20;;
58250;SDS011;51449;51.676;5.812;2022-08-19T14:03:31;30.73;;;25.70;;
58250;SDS011;51449;51.676;5.812;2022-08-19T14:05:55;29.63;;;25.25;;
58250;SDS011;51449;51.676;5.812;2022-08-19T14:08:17;28.60;;;23.15;;
58250;SDS011;51449;51.676;5.812;2022-08-19T14:10:40;32.10;;;25.15;;
58250;SDS011;51449;51.676;5.812;2022-08-19T14:13:03;33.45;;;27.23;;
58250;SDS011;51449;51.676;5.812;2022-08-19T14:15:26;31.98;;;26.52;;
58250;SDS011;51449;51.676;5.812;2022-08-19T14:17:49;31.83;;;24.55;;
58250;SDS011;51449;51.676;5.812;2022-08-19T14:20:12;29.23;;;25.85;;
58250;SDS011;51449;51.676;5.812;2022-08-19T14:22:39;29.20;;;23.92;;
58250;SDS011;51449;51.676;5.812;2022-08-19T14:25:09;37.65;;;29.67;;
58250;SDS011;51449;51.676;5.812;2022-08-19T14:27:37;35.03;;;28.95;;
58250;SDS011;51449;51.676;5.812;2022-08-19T14:30:03;39.05;;;29.52;;
58250;SDS011;51449;51.676;5.812;2022-08-19T14:32:28;37.42;;;30.15;;
58250;SDS011;51449;51.676;5.812;2022-08-19T14:34:50;33.53;;;29.65;;
58250;SDS011;51449;51.676;5.812;2022-08-19T14:37:13;40.28;;;30.63;;
58250;SDS011;51449;51.676;5.812;2022-08-19T14:39:36;38.83;;;30.70;;
58250;SDS011;51449;51.676;5.812;2022-08-19T14:41:59;35.45;;;28.73;;
58250;SDS011;51449;51.676;5.812;2022-08-19T14:44:21;37.08;;;30.20;;